createdAt,value
2023-03-02T00:01:06.219Z,1.13
2023-03-02T00:04:15.013Z,0.91
2023-03-02T00:07:19.357Z,1.01
2023-03-02T00:10:25.094Z,0.87
2023-03-02T00:13:27.236Z,0.80
2023-03-02T00:16:31.889Z,0.99
2023-03-02T00:19:36.912Z,0.95
2023-03-02T00:22:40.383Z,0.87
2023-03-02T00:25:43.569Z,1.01
2023-03-02T00:28:46.313Z,0.99
2023-03-02T00:31:48.866Z,1.04
2023-03-02T00:34:53.428Z,0.82
2023-03-02T00:37:55.434Z,0.92
2023-03-02T00:41:02.347Z,0.99
2023-03-02T00:44:05.448Z,0.85
2023-03-02T00:47:07.442Z,0.87
2023-03-02T00:50:10.615Z,0.90
2023-03-02T00:53:13.734Z,0.87
2023-03-02T00:56:19.691Z,0.87
2023-03-02T00:59:21.576Z,0.76
2023-03-02T01:02:23.485Z,0.84
2023-03-02T01:05:26.259Z,0.95
2023-03-02T01:08:28.505Z,0.89
2023-03-02T01:11:31.654Z,0.96
2023-03-02T01:14:33.720Z,0.77
2023-03-02T01:17:35.917Z,0.88
2023-03-02T01:20:38.094Z,0.80
2023-03-02T01:23:42.595Z,0.87
2023-03-02T01:26:46.041Z,0.76
2023-03-02T01:29:47.943Z,0.72
2023-03-02T01:32:52.247Z,0.84
2023-03-02T01:35:54.072Z,0.73
2023-03-02T01:38:59.459Z,0.68
2023-03-02T01:42:02.626Z,0.70
2023-03-02T01:45:06.613Z,0.74
2023-03-02T01:48:10.268Z,0.70
2023-03-02T01:51:15.628Z,0.72
2023-03-02T01:54:23.098Z,0.67
2023-03-02T01:57:32.943Z,0.76
2023-03-02T02:00:37.867Z,0.80
2023-03-02T02:03:39.856Z,0.78
2023-03-02T02:06:49.312Z,0.66
2023-03-02T02:09:52.089Z,0.63
2023-03-02T02:12:55.582Z,0.70
2023-03-02T02:16:00.630Z,0.67
2023-03-02T02:19:04.111Z,0.57
2023-03-02T02:22:06.213Z,0.65
2023-03-02T02:25:22.478Z,0.63
2023-03-02T02:28:31.820Z,0.63
2023-03-02T02:31:39.228Z,0.62
2023-03-02T02:34:48.469Z,0.74
2023-03-02T02:37:53.567Z,0.61
2023-03-02T02:40:58.168Z,0.62
2023-03-02T02:44:01.780Z,0.58
2023-03-02T02:47:13.968Z,0.60
2023-03-02T02:50:19.007Z,0.61
2023-03-02T02:53:26.235Z,0.66
2023-03-02T02:56:31.611Z,0.70
2023-03-02T02:59:37.967Z,0.69
2023-03-02T03:02:47.010Z,0.66
2023-03-02T03:05:49.022Z,0.66
2023-03-02T03:08:57.664Z,0.72
2023-03-02T03:12:04.190Z,0.75
2023-03-02T03:15:08.728Z,0.66
2023-03-02T03:18:10.633Z,0.74
2023-03-02T03:21:13.510Z,0.69
2023-03-02T03:24:16.128Z,0.73
2023-03-02T03:27:18.109Z,0.74
2023-03-02T03:30:21.950Z,0.72
2023-03-02T03:33:24.306Z,0.67
2023-03-02T03:36:27.614Z,0.66
2023-03-02T03:39:29.729Z,0.68
2023-03-02T03:42:31.922Z,0.66
2023-03-02T03:45:35.094Z,0.61
2023-03-02T03:48:36.979Z,0.54
2023-03-02T03:51:39.255Z,0.55
2023-03-02T03:54:45.094Z,0.47
2023-03-02T03:57:47.278Z,0.51
2023-03-02T04:00:53.808Z,0.56
2023-03-02T04:03:58.423Z,0.53
2023-03-02T04:07:00.836Z,0.49
2023-03-02T04:10:04.116Z,0.42
2023-03-02T04:13:06.212Z,0.44
2023-03-02T04:16:09.375Z,0.37
2023-03-02T04:19:14.066Z,0.42
2023-03-02T04:22:17.231Z,0.43
2023-03-02T04:25:21.640Z,0.51
2023-03-02T04:28:23.479Z,0.45
2023-03-02T04:31:30.118Z,0.51
2023-03-02T04:34:32.465Z,0.49
2023-03-02T04:37:36.777Z,0.45
2023-03-02T04:40:38.670Z,0.43
2023-03-02T04:43:43.109Z,0.41
2023-03-02T04:46:47.532Z,0.39
2023-03-02T04:49:49.332Z,0.48
2023-03-02T04:52:51.950Z,0.48
2023-03-02T04:55:53.722Z,0.42
2023-03-02T04:58:56.259Z,0.44
2023-03-02T05:02:01.281Z,0.41
2023-03-02T05:05:03.315Z,0.37
2023-03-02T05:08:08.616Z,0.42
2023-03-02T05:11:16.717Z,0.37
2023-03-02T05:14:19.145Z,0.44
2023-03-02T05:17:22.400Z,0.45
2023-03-02T05:20:25.344Z,0.49
2023-03-02T05:23:27.975Z,0.51
2023-03-02T05:26:30.383Z,0.55
2023-03-02T05:29:33.076Z,0.52
2023-03-02T05:32:36.890Z,0.61
2023-03-02T05:35:39.127Z,0.59
2023-03-02T05:38:41.414Z,0.70
2023-03-02T05:41:43.437Z,0.66
2023-03-02T05:44:45.235Z,0.57
2023-03-02T05:47:51.582Z,0.52
2023-03-02T05:50:53.826Z,0.56
2023-03-02T05:53:55.822Z,0.54
2023-03-02T05:56:57.696Z,0.46
2023-03-02T06:00:00.189Z,0.43
2023-03-02T06:03:03.892Z,0.41
2023-03-02T06:06:08.545Z,0.53
2023-03-02T06:09:10.388Z,0.47
2023-03-02T06:12:15.303Z,0.52
2023-03-02T06:15:17.502Z,0.49
2023-03-02T06:18:23.432Z,0.52
2023-03-02T06:21:25.267Z,0.50
2023-03-02T06:24:27.535Z,0.48
2023-03-02T06:27:32.529Z,0.51
2023-03-02T06:30:34.758Z,0.55
2023-03-02T06:33:38.452Z,0.54
2023-03-02T06:36:40.525Z,0.55
2023-03-02T06:39:42.376Z,0.62
2023-03-02T06:42:47.418Z,0.55
2023-03-02T06:45:49.576Z,0.60
2023-03-02T06:48:52.730Z,0.56
2023-03-02T06:51:54.545Z,0.55
2023-03-02T06:54:56.638Z,0.58
2023-03-02T06:57:58.422Z,0.66
2023-03-02T07:01:00.586Z,0.67
2023-03-02T07:04:04.101Z,0.77
2023-03-02T07:07:06.136Z,0.74
2023-03-02T07:10:09.847Z,0.77
2023-03-02T07:13:11.664Z,0.83
2023-03-02T07:16:14.875Z,0.86
2023-03-02T07:19:18.419Z,0.98
2023-03-02T07:22:20.551Z,0.97
2023-03-02T07:25:22.849Z,0.99
2023-03-02T07:28:27.428Z,1.03
2023-03-02T07:31:29.325Z,1.07
2023-03-02T07:34:32.939Z,1.12
2023-03-02T07:37:34.771Z,1.12
2023-03-02T07:40:40.996Z,1.19
2023-03-02T07:43:43.325Z,1.23
2023-03-02T07:46:45.464Z,1.26
2023-03-02T07:49:49.494Z,1.31
2023-03-02T07:52:52.196Z,1.56
2023-03-02T07:55:54.532Z,1.44
2023-03-02T07:58:56.366Z,1.47
2023-03-02T08:01:58.487Z,1.47
2023-03-02T08:05:03.113Z,1.48
2023-03-02T08:08:05.453Z,1.60
2023-03-02T08:11:09.528Z,1.64
2023-03-02T08:14:11.517Z,1.64
2023-03-02T08:17:13.280Z,1.66
2023-03-02T08:20:19.304Z,1.86
2023-03-02T08:23:21.978Z,1.77
2023-03-02T08:26:23.779Z,1.83
2023-03-02T08:29:26.595Z,1.95
2023-03-02T08:32:28.471Z,2.07
2023-03-02T08:35:32.009Z,2.07
2023-03-02T08:38:36.570Z,1.99
2023-03-02T08:41:38.679Z,2.08
2023-03-02T08:44:43.136Z,2.20
2023-03-02T08:47:45.107Z,2.26
2023-03-02T08:51:01.357Z,2.28
2023-03-02T08:54:03.388Z,2.40
2023-03-02T08:57:05.674Z,2.34
2023-03-02T09:00:08.896Z,2.38
2023-03-02T09:03:11.146Z,2.44
2023-03-02T09:06:14.620Z,2.69
2023-03-02T09:09:16.516Z,2.76
2023-03-02T09:12:18.269Z,2.82
2023-03-02T09:15:20.573Z,2.93
2023-03-02T09:18:22.348Z,3.04
2023-03-02T09:21:30.890Z,3.26
2023-03-02T09:24:33.692Z,3.33
2023-03-02T09:27:35.491Z,3.33
2023-03-02T09:30:37.628Z,3.36
2023-03-02T09:33:39.730Z,3.43
2023-03-02T09:36:43.189Z,3.56
2023-03-02T09:39:45.380Z,3.64
2023-03-02T09:43:16.678Z,3.65
2023-03-02T09:46:26.017Z,3.85
2023-03-02T09:49:35.832Z,3.83
2023-03-02T09:52:46.717Z,3.82
2023-03-02T09:55:54.332Z,3.96
2023-03-02T09:59:01.392Z,4.04
2023-03-02T10:02:17.395Z,4.26
2023-03-02T10:05:24.060Z,4.39
2023-03-02T10:08:30.693Z,4.58
2023-03-02T10:11:43.118Z,4.57
2023-03-02T10:14:53.591Z,4.64
2023-03-02T10:18:05.833Z,4.63
2023-03-02T10:21:13.893Z,4.62
2023-03-02T10:24:29.773Z,4.97
2023-03-02T10:27:36.845Z,4.91
2023-03-02T10:30:40.429Z,4.97
2023-03-02T10:33:42.601Z,5.12
2023-03-02T10:36:45.144Z,5.29
2023-03-02T10:39:50.904Z,5.34
2023-03-02T10:42:54.314Z,5.34
2023-03-02T10:46:01.467Z,5.50
2023-03-02T10:49:03.414Z,5.65
2023-03-02T10:52:12.495Z,5.69
2023-03-02T10:55:16.701Z,5.68
2023-03-02T10:58:24.051Z,5.81
2023-03-02T11:01:26.460Z,5.99
2023-03-02T11:04:28.833Z,5.97
2023-03-02T11:07:31.097Z,6.00
2023-03-02T11:10:37.781Z,6.24
2023-03-02T11:13:39.841Z,6.31
2023-03-02T11:16:42.049Z,6.54
2023-03-02T11:19:43.909Z,6.55
2023-03-02T11:22:59.556Z,6.59
2023-03-02T11:26:11.401Z,6.71
2023-03-02T11:29:28.154Z,6.75
2023-03-02T11:32:37.093Z,6.88
2023-03-02T11:35:47.075Z,6.88
2023-03-02T11:38:53.627Z,7.04
2023-03-02T11:41:57.639Z,7.09
2023-03-02T11:45:08.883Z,7.22
2023-03-02T11:48:18.699Z,7.18
2023-03-02T11:51:23.985Z,7.34
2023-03-02T11:54:40.745Z,7.50
2023-03-02T11:57:47.460Z,7.63
2023-03-02T12:00:50.716Z,7.58
2023-03-02T12:03:53.334Z,7.63
2023-03-02T12:06:58.082Z,7.58
2023-03-02T12:10:04.442Z,7.71
2023-03-02T12:13:19.944Z,7.97
2023-03-02T12:16:23.517Z,7.90
2023-03-02T12:19:28.160Z,8.06
2023-03-02T12:22:31.643Z,8.11
2023-03-02T12:25:41.080Z,8.03
2023-03-02T12:28:59.043Z,8.14
2023-03-02T12:32:12.581Z,8.18
2023-03-02T12:35:20.599Z,8.26
2023-03-02T12:38:30.880Z,8.40
2023-03-02T12:41:49.526Z,8.49
2023-03-02T12:45:03.319Z,8.41
2023-03-02T12:48:23.122Z,8.48
2023-03-02T12:51:26.587Z,8.55
2023-03-02T12:54:30.375Z,8.62
2023-03-02T12:57:33.328Z,8.64
2023-03-02T13:00:37.097Z,8.72
2023-03-02T13:03:46.283Z,8.67
2023-03-02T13:06:47.871Z,8.69
2023-03-02T13:09:56.668Z,8.72
2023-03-02T13:13:00.416Z,8.79
2023-03-02T13:16:07.266Z,8.89
2023-03-02T13:19:13.599Z,8.81
2023-03-02T13:22:17.621Z,9.07
2023-03-02T13:25:23.998Z,9.04
2023-03-02T13:28:28.817Z,9.13
2023-03-02T13:31:35.631Z,9.20
2023-03-02T13:34:37.777Z,8.97
2023-03-02T13:37:41.785Z,9.07
2023-03-02T13:40:49.513Z,9.34
2023-03-02T13:43:51.313Z,9.33
2023-03-02T13:46:57.876Z,9.36
2023-03-02T13:50:07.550Z,9.33
2023-03-02T13:53:11.767Z,9.35
2023-03-02T13:56:17.572Z,9.40
2023-03-02T13:59:21.366Z,9.40
2023-03-02T14:02:27.123Z,9.56
2023-03-02T14:05:29.660Z,9.57
2023-03-02T14:08:31.554Z,9.61
2023-03-02T14:11:39.146Z,9.65
2023-03-02T14:14:40.997Z,9.67
2023-03-02T14:17:44.898Z,9.73
2023-03-02T14:20:46.959Z,9.74
2023-03-02T14:23:49.936Z,9.50
2023-03-02T14:26:51.828Z,9.40
2023-03-02T14:29:54.142Z,9.26
2023-03-02T14:32:57.661Z,9.33
2023-03-02T14:36:03.308Z,9.44
2023-03-02T14:39:12.380Z,9.38
2023-03-02T14:42:17.620Z,9.45
2023-03-02T14:45:22.321Z,9.55
2023-03-02T14:48:25.638Z,9.51
2023-03-02T14:51:32.618Z,9.44
2023-03-02T14:54:39.448Z,9.40
2023-03-02T14:57:42.305Z,9.69
2023-03-02T15:00:44.854Z,9.54
2023-03-02T15:03:50.092Z,9.48
2023-03-02T15:06:53.675Z,9.50
2023-03-02T15:09:56.381Z,9.56
2023-03-02T15:13:00.251Z,9.37
2023-03-02T15:16:02.049Z,9.60
2023-03-02T15:19:10.755Z,9.55
2023-03-02T15:22:15.396Z,9.49
2023-03-02T15:25:18.370Z,9.49
2023-03-02T15:28:21.405Z,9.58
2023-03-02T15:31:24.047Z,9.48
2023-03-02T15:34:29.375Z,9.38
2023-03-02T15:37:32.272Z,9.45
2023-03-02T15:40:34.047Z,9.46
2023-03-02T15:43:40.544Z,9.50
2023-03-02T15:46:42.376Z,9.31
2023-03-02T15:49:45.828Z,9.35
2023-03-02T15:52:50.513Z,9.35
2023-03-02T15:55:52.452Z,9.45
2023-03-02T15:58:54.728Z,9.18
2023-03-02T16:01:57.591Z,9.35
2023-03-02T16:05:00.850Z,9.41
2023-03-02T16:08:04.523Z,9.28
2023-03-02T16:11:08.134Z,9.21
2023-03-02T16:14:10.734Z,9.20
2023-03-02T16:17:12.560Z,8.96
2023-03-02T16:20:18.131Z,8.87
2023-03-02T16:23:20.567Z,8.53
2023-03-02T16:26:26.067Z,8.47
2023-03-02T16:29:28.392Z,8.26
2023-03-02T16:32:30.321Z,8.10
2023-03-02T16:35:35.016Z,8.15
2023-03-02T16:38:39.144Z,7.96
2023-03-02T16:41:46.006Z,7.68
2023-03-02T16:44:50.207Z,7.60
2023-03-02T16:47:52.141Z,7.53
2023-03-02T16:51:01.832Z,7.52
2023-03-02T16:54:04.417Z,7.24
2023-03-02T16:57:06.464Z,7.13
2023-03-02T17:00:11.503Z,7.11
2023-03-02T17:03:17.699Z,7.17
2023-03-02T17:06:27.845Z,7.16
2023-03-02T17:09:30.254Z,7.06
2023-03-02T17:12:36.514Z,6.78
2023-03-02T17:15:40.042Z,6.86
2023-03-02T17:18:42.351Z,6.78
2023-03-02T17:21:46.014Z,6.70
2023-03-02T17:24:48.875Z,6.72
2023-03-02T17:27:50.639Z,6.66
2023-03-02T17:30:57.891Z,6.49
2023-03-02T17:34:00.502Z,6.50
2023-03-02T17:37:04.251Z,6.47
2023-03-02T17:40:09.327Z,6.47
2023-03-02T17:43:18.913Z,6.33
2023-03-02T17:46:24.034Z,6.44
2023-03-02T17:49:27.361Z,6.41
2023-03-02T17:52:33.412Z,6.37
2023-03-02T17:55:36.379Z,6.22
2023-03-02T17:58:44.936Z,6.26
2023-03-02T18:01:48.322Z,6.18
2023-03-02T18:04:51.518Z,6.20
2023-03-02T18:07:59.717Z,6.04
2023-03-02T18:11:04.767Z,6.06
2023-03-02T18:14:13.184Z,5.99
2023-03-02T18:17:20.373Z,5.90
2023-03-02T18:20:23.887Z,5.91
2023-03-02T18:23:28.029Z,5.88
2023-03-02T18:26:33.179Z,5.92
2023-03-02T18:29:38.988Z,5.91
2023-03-02T18:32:42.192Z,5.81
2023-03-02T18:35:46.721Z,5.81
2023-03-02T18:38:51.479Z,5.84
2023-03-02T18:41:55.981Z,5.82
2023-03-02T18:45:01.130Z,5.70
2023-03-02T18:48:04.645Z,5.69
2023-03-02T18:51:07.870Z,5.56
2023-03-02T18:54:18.788Z,5.63
2023-03-02T18:57:21.880Z,5.61
2023-03-02T19:00:27.914Z,5.53
2023-03-02T19:03:35.345Z,5.50
2023-03-02T19:06:38.696Z,5.39
2023-03-02T19:09:42.818Z,5.40
2023-03-02T19:12:46.414Z,5.42
2023-03-02T19:15:49.411Z,5.31
2023-03-02T19:18:51.978Z,5.26
2023-03-02T19:21:54.648Z,5.33
2023-03-02T19:24:59.713Z,5.20
2023-03-02T19:28:09.525Z,5.19
2023-03-02T19:31:12.984Z,5.16
2023-03-02T19:34:16.785Z,5.17
2023-03-02T19:37:29.519Z,5.22
2023-03-02T19:40:34.714Z,5.05
2023-03-02T19:43:38.525Z,5.07
2023-03-02T19:46:43.151Z,5.07
2023-03-02T19:49:46.127Z,5.06
2023-03-02T19:52:48.833Z,5.02
2023-03-02T19:55:59.622Z,5.04
2023-03-02T19:59:02.781Z,5.02
2023-03-02T20:02:09.212Z,5.01
2023-03-02T20:05:12.791Z,4.88
2023-03-02T20:08:15.686Z,4.92
2023-03-02T20:11:19.912Z,4.89
2023-03-02T20:14:33.569Z,4.88
2023-03-02T20:17:36.673Z,4.90
2023-03-02T20:20:41.074Z,4.95
2023-03-02T20:23:47.066Z,4.89
2023-03-02T20:26:55.449Z,4.87
2023-03-02T20:29:58.346Z,4.84
2023-03-02T20:33:03.704Z,4.74
2023-03-02T20:36:07.988Z,4.75
2023-03-02T20:39:15.506Z,4.67
2023-03-02T20:42:20.464Z,4.74
2023-03-02T20:45:23.956Z,4.76
2023-03-02T20:48:27.810Z,4.72
2023-03-02T20:51:30.810Z,4.77
2023-03-02T20:54:40.282Z,4.80
2023-03-02T20:57:52.303Z,4.85
2023-03-02T21:00:56.436Z,4.68
2023-03-02T21:03:59.285Z,4.65
2023-03-02T21:07:02.419Z,4.56
2023-03-02T21:10:07.708Z,4.41
2023-03-02T21:13:14.740Z,4.40
2023-03-02T21:16:19.293Z,4.45
2023-03-02T21:19:22.013Z,4.53
2023-03-02T21:22:24.965Z,4.44
2023-03-02T21:25:27.846Z,4.44
2023-03-02T21:28:38.606Z,4.40
2023-03-02T21:31:41.701Z,4.40
2023-03-02T21:34:44.482Z,4.37
2023-03-02T21:37:48.021Z,4.41
2023-03-02T21:40:50.893Z,4.31
2023-03-02T21:43:54.689Z,4.31
2023-03-02T21:46:59.336Z,4.26
2023-03-02T21:50:01.961Z,4.25
2023-03-02T21:53:09.899Z,4.25
2023-03-02T21:56:17.689Z,4.24
2023-03-02T21:59:20.823Z,4.16
2023-03-02T22:02:25.966Z,4.15
2023-03-02T22:05:28.049Z,4.04
2023-03-02T22:08:30.293Z,3.98
2023-03-02T22:11:35.336Z,3.93
2023-03-02T22:14:39.835Z,3.95
2023-03-02T22:17:44.972Z,3.99
2023-03-02T22:20:48.923Z,3.90
2023-03-02T22:23:53.422Z,3.88
2023-03-02T22:27:02.124Z,3.89
2023-03-02T22:30:18.606Z,3.91
2023-03-02T22:33:22.953Z,3.83
2023-03-02T22:36:26.572Z,3.74
2023-03-02T22:39:31.591Z,3.69
2023-03-02T22:42:37.467Z,3.67
2023-03-02T22:45:41.663Z,3.49
2023-03-02T22:48:44.844Z,3.31
2023-03-02T22:51:46.614Z,3.11
2023-03-02T22:54:51.542Z,2.98
2023-03-02T22:57:55.919Z,2.62
2023-03-02T23:01:00.511Z,2.73
2023-03-02T23:04:15.201Z,2.70
2023-03-02T23:07:19.622Z,2.69
2023-03-02T23:10:22.371Z,2.49
2023-03-02T23:13:31.077Z,2.36
2023-03-02T23:16:35.780Z,2.23
2023-03-02T23:19:39.190Z,2.10
2023-03-02T23:22:43.450Z,1.93
2023-03-02T23:25:46.293Z,1.97
2023-03-02T23:28:49.435Z,2.05
2023-03-02T23:31:53.015Z,2.10
2023-03-02T23:34:54.874Z,1.99
2023-03-02T23:37:59.713Z,2.00
2023-03-02T23:41:01.498Z,1.37
2023-03-02T23:44:06.395Z,0.77
2023-03-02T23:47:10.071Z,0.66
2023-03-02T23:50:12.504Z,0.71
2023-03-02T23:53:14.355Z,0.73
2023-03-02T23:56:16.704Z,0.71
2023-03-02T23:59:18.448Z,0.71
